Terminal Aerodrome Forecast
Issued by NWS Jacksonville, FL

Home | Current Version | Previous Version | Text Only | Print | Product List | Glossary On
Versions: 1 2 3 4 5 6 7 8 9 10 11 12 13 14
000
FTUS42 KJAX 281843 AAA
TAFGNV
TAF AMD
KGNV 281843Z 2819/2918 07010G15KT P6SM VCSH SCT025 BKN040
     FM290000 04002KT P6SM FEW030 SCT250
     FM291400 07010G15KT P6SM VCSH SCT020 BKN035=

USA.gov is the U.S. government's official web portal to all federal, state and local government web resources and services.